createdAt,value
2017-01-16T00:00:18.449Z,99.99
2017-01-16T00:01:19.046Z,99.99
2017-01-16T00:02:18.425Z,99.99
2017-01-16T00:03:19.105Z,99.99
2017-01-16T00:04:19.042Z,99.99
2017-01-16T00:05:19.338Z,99.99
2017-01-16T00:06:18.371Z,99.99
2017-01-16T00:07:18.608Z,99.99
2017-01-16T00:08:18.481Z,99.99
2017-01-16T00:09:18.577Z,99.99
2017-01-16T00:10:18.553Z,99.99
2017-01-16T00:11:18.665Z,99.99
2017-01-16T00:12:19.209Z,99.99
2017-01-16T00:13:18.286Z,99.99
2017-01-16T00:14:18.278Z,99.99
2017-01-16T00:15:18.691Z,99.99
2017-01-16T00:16:19.205Z,99.99
2017-01-16T00:17:19.062Z,99.99
2017-01-16T00:18:18.474Z,99.99
2017-01-16T00:19:18.984Z,99.99
2017-01-16T00:20:19.035Z,99.99
2017-01-16T00:21:18.944Z,99.99
2017-01-16T00:22:18.685Z,99.99
2017-01-16T00:23:18.232Z,99.99
2017-01-16T00:24:18.674Z,99.99
2017-01-16T00:25:18.641Z,99.99
2017-01-16T00:26:18.394Z,99.99
2017-01-16T00:27:19.854Z,99.99
2017-01-16T00:28:18.927Z,99.99
2017-01-16T00:29:18.692Z,99.99
2017-01-16T00:30:18.675Z,99.99
2017-01-16T00:31:18.644Z,99.99
2017-01-16T00:32:19.109Z,99.99
2017-01-16T00:33:19.250Z,99.99
2017-01-16T00:34:19.253Z,99.99
2017-01-16T00:35:18.722Z,99.99
2017-01-16T00:36:19.067Z,99.99
2017-01-16T00:37:19.361Z,99.99
2017-01-16T00:38:19.050Z,99.99
2017-01-16T00:39:18.781Z,99.99
2017-01-16T00:40:19.056Z,99.99
2017-01-16T00:41:19.007Z,99.99
2017-01-16T00:42:18.566Z,99.99
2017-01-16T00:43:19.860Z,99.99
2017-01-16T00:44:18.745Z,99.99
2017-01-16T00:45:18.968Z,99.99
2017-01-16T00:46:19.085Z,99.99
2017-01-16T00:47:19.621Z,99.99
2017-01-16T00:48:19.012Z,99.99
2017-01-16T00:49:18.887Z,99.99
2017-01-16T00:50:19.296Z,99.99
2017-01-16T00:51:18.971Z,99.99
2017-01-16T00:52:19.164Z,99.99
2017-01-16T00:53:19.455Z,99.99
2017-01-16T00:54:19.869Z,99.99
2017-01-16T00:55:18.896Z,99.99
2017-01-16T00:56:19.114Z,99.99
2017-01-16T00:57:19.419Z,99.99
2017-01-16T00:58:19.773Z,99.99
2017-01-16T00:59:19.144Z,99.99
2017-01-16T01:00:19.039Z,99.99
2017-01-16T01:01:19.075Z,99.99
2017-01-16T01:02:19.576Z,99.99
2017-01-16T01:03:19.748Z,99.99
2017-01-16T01:04:19.616Z,99.99
2017-01-16T01:05:18.962Z,99.99
2017-01-16T01:06:19.209Z,99.99
2017-01-16T01:07:19.662Z,99.99
2017-01-16T01:08:18.974Z,99.99
2017-01-16T01:09:19.287Z,99.99
2017-01-16T01:10:19.062Z,99.99
2017-01-16T01:11:19.078Z,99.99
2017-01-16T01:12:19.271Z,99.99
2017-01-16T01:13:19.844Z,99.99
2017-01-16T01:14:19.230Z,99.99
2017-01-16T01:15:19.620Z,99.99
2017-01-16T01:16:19.378Z,99.99
2017-01-16T01:17:19.035Z,99.99
2017-01-16T01:18:19.297Z,99.99
2017-01-16T01:19:19.717Z,99.99
2017-01-16T01:20:19.524Z,99.99
2017-01-16T01:21:19.818Z,99.99
2017-01-16T01:22:19.499Z,99.99
2017-01-16T01:23:19.732Z,99.99
2017-01-16T01:24:19.161Z,99.99
2017-01-16T01:25:19.503Z,99.99
2017-01-16T01:26:19.503Z,99.99
2017-01-16T01:27:19.400Z,99.99
2017-01-16T01:28:19.423Z,99.99
2017-01-16T01:29:19.298Z,99.99
2017-01-16T01:30:19.404Z,99.99
2017-01-16T01:31:19.489Z,99.99
2017-01-16T01:32:19.316Z,99.99
2017-01-16T01:33:19.607Z,99.99
2017-01-16T01:34:19.510Z,99.99
2017-01-16T01:35:19.568Z,99.99
2017-01-16T01:36:19.933Z,99.99
2017-01-16T01:37:19.601Z,99.99
2017-01-16T01:38:19.395Z,99.99
2017-01-16T01:39:19.356Z,99.99
2017-01-16T01:40:19.361Z,99.99
2017-01-16T01:41:19.617Z,99.99
2017-01-16T01:42:19.390Z,99.99
2017-01-16T01:43:19.658Z,99.99
2017-01-16T01:44:19.904Z,99.99
2017-01-16T01:45:19.659Z,99.99
2017-01-16T01:46:19.431Z,99.99
2017-01-16T01:47:19.860Z,99.99
2017-01-16T01:48:19.823Z,99.99
2017-01-16T01:49:19.496Z,99.99
2017-01-16T01:50:19.455Z,99.99
2017-01-16T01:51:19.535Z,99.99
2017-01-16T01:52:20.146Z,99.99
2017-01-16T01:53:19.317Z,99.99
2017-01-16T01:54:19.938Z,99.99
2017-01-16T01:55:20.141Z,99.99
2017-01-16T01:56:19.808Z,99.99
2017-01-16T01:57:19.480Z,99.99
2017-01-16T01:58:19.319Z,99.99
2017-01-16T01:59:19.552Z,99.99
2017-01-16T02:00:20.219Z,99.99
2017-01-16T02:01:19.815Z,99.99
2017-01-16T02:02:20.211Z,99.99
2017-01-16T02:03:19.871Z,99.99
2017-01-16T02:04:20.128Z,99.99
2017-01-16T02:05:19.867Z,99.99
2017-01-16T02:06:19.614Z,99.99
2017-01-16T02:07:19.789Z,99.99
2017-01-16T02:08:20.150Z,99.99
2017-01-16T02:09:19.738Z,99.99
2017-01-16T02:10:20.578Z,99.99
2017-01-16T02:11:20.113Z,99.99
2017-01-16T02:12:20.291Z,99.99
2017-01-16T02:13:19.967Z,99.99
2017-01-16T02:14:19.714Z,99.99
2017-01-16T02:15:19.720Z,99.99
2017-01-16T02:16:19.828Z,99.99
2017-01-16T02:17:19.808Z,99.99
2017-01-16T02:18:19.808Z,99.99
2017-01-16T02:19:20.406Z,99.99
2017-01-16T02:20:19.999Z,99.99
2017-01-16T02:21:20.017Z,99.99
2017-01-16T02:22:20.112Z,99.99
2017-01-16T02:23:20.231Z,99.99
2017-01-16T02:24:19.975Z,99.99
2017-01-16T02:25:20.101Z,99.99
2017-01-16T02:26:19.866Z,99.99
2017-01-16T02:27:20.350Z,99.99
2017-01-16T02:28:19.933Z,99.99
2017-01-16T02:29:20.062Z,99.99
2017-01-16T02:30:20.842Z,99.99
2017-01-16T02:31:20.030Z,99.99
2017-01-16T02:32:20.969Z,99.99
2017-01-16T02:33:20.168Z,99.99
2017-01-16T02:34:19.935Z,99.99
2017-01-16T02:35:19.968Z,99.99
2017-01-16T02:36:20.254Z,99.99
2017-01-16T02:37:20.307Z,99.99
2017-01-16T02:38:20.852Z,99.99
2017-01-16T02:39:20.341Z,99.99
2017-01-16T02:40:20.350Z,99.99
2017-01-16T02:41:20.658Z,99.99
2017-01-16T02:42:20.473Z,99.99
2017-01-16T02:43:20.439Z,99.99
2017-01-16T02:44:20.207Z,99.99
2017-01-16T02:45:20.154Z,99.99
2017-01-16T02:46:20.556Z,99.99
2017-01-16T02:47:21.347Z,99.99
2017-01-16T02:48:20.525Z,99.99
2017-01-16T02:49:19.746Z,99.99
2017-01-16T02:50:20.548Z,99.99
2017-01-16T02:51:20.359Z,99.99
2017-01-16T02:52:21.106Z,99.99
2017-01-16T02:53:20.286Z,99.99
2017-01-16T02:54:20.387Z,99.99
2017-01-16T02:55:20.462Z,99.99
2017-01-16T02:56:20.504Z,99.99
2017-01-16T02:57:20.472Z,99.99
2017-01-16T02:58:20.266Z,99.99
2017-01-16T02:59:20.099Z,99.99
2017-01-16T03:00:20.264Z,99.99
2017-01-16T03:01:20.388Z,99.99
2017-01-16T03:02:20.687Z,99.99
2017-01-16T03:03:20.149Z,99.99
2017-01-16T03:04:20.874Z,99.99
2017-01-16T03:05:20.268Z,99.99
2017-01-16T03:06:20.597Z,99.99
2017-01-16T03:07:20.347Z,99.99
2017-01-16T03:08:20.321Z,99.99
2017-01-16T03:09:20.496Z,99.99
2017-01-16T03:10:20.229Z,99.99
2017-01-16T03:11:20.908Z,99.99
2017-01-16T03:12:20.753Z,99.99
2017-01-16T03:13:20.357Z,99.99
2017-01-16T03:14:20.274Z,99.99
2017-01-16T03:15:21.023Z,99.99
2017-01-16T03:16:20.270Z,99.99
2017-01-16T03:17:20.617Z,99.99
2017-01-16T03:18:20.331Z,99.99
2017-01-16T03:19:20.455Z,99.99
2017-01-16T03:20:20.706Z,99.99
2017-01-16T03:21:20.892Z,99.99
2017-01-16T03:22:20.847Z,99.99
2017-01-16T03:23:20.715Z,99.99
2017-01-16T03:24:20.926Z,99.99
2017-01-16T03:25:20.348Z,99.99
2017-01-16T03:26:20.465Z,99.99
2017-01-16T03:27:21.167Z,99.99
2017-01-16T03:28:20.760Z,99.99
2017-01-16T03:29:21.020Z,99.99
2017-01-16T03:30:20.491Z,99.99
2017-01-16T03:31:21.117Z,99.99
2017-01-16T03:32:20.382Z,99.99
2017-01-16T03:33:20.754Z,99.99
2017-01-16T03:34:20.957Z,99.99
2017-01-16T03:35:20.998Z,99.99
2017-01-16T03:36:21.029Z,99.99
2017-01-16T03:37:21.019Z,99.99
2017-01-16T03:38:21.291Z,99.99
2017-01-16T03:39:20.799Z,99.99
2017-01-16T03:40:20.832Z,99.99
2017-01-16T03:41:20.483Z,99.99
2017-01-16T03:42:20.999Z,99.99
2017-01-16T03:43:20.845Z,99.99
2017-01-16T03:44:20.928Z,99.99
2017-01-16T03:45:20.324Z,99.99
2017-01-16T03:46:20.588Z,99.99
2017-01-16T03:47:20.782Z,99.99
2017-01-16T03:48:20.687Z,99.99
2017-01-16T03:49:20.800Z,99.99
2017-01-16T03:50:20.707Z,99.99
2017-01-16T03:51:21.583Z,99.99
2017-01-16T03:52:21.519Z,99.99
2017-01-16T03:53:21.131Z,99.99
2017-01-16T03:54:20.837Z,99.99
2017-01-16T03:55:20.971Z,99.99
2017-01-16T03:56:21.040Z,99.99
2017-01-16T03:57:20.878Z,99.99
2017-01-16T03:58:20.790Z,99.99
2017-01-16T03:59:20.747Z,99.99
2017-01-16T04:00:21.223Z,99.99
2017-01-16T04:01:20.635Z,99.99
2017-01-16T04:02:21.378Z,99.99
2017-01-16T04:03:21.544Z,99.99
2017-01-16T04:04:21.221Z,99.99
2017-01-16T04:05:20.939Z,99.99
2017-01-16T04:06:21.171Z,99.99
2017-01-16T04:07:21.424Z,99.99
2017-01-16T04:08:20.720Z,99.99
2017-01-16T04:09:21.979Z,99.99
2017-01-16T04:10:22.376Z,99.99
2017-01-16T04:11:21.237Z,99.99
2017-01-16T04:12:20.950Z,99.99
2017-01-16T04:13:20.816Z,99.99
2017-01-16T04:14:21.254Z,99.99
2017-01-16T04:15:21.899Z,99.99
2017-01-16T04:16:21.327Z,99.99
2017-01-16T04:17:20.892Z,99.99
2017-01-16T04:18:21.098Z,99.99
2017-01-16T04:19:20.874Z,99.99
2017-01-16T04:20:21.046Z,99.99
2017-01-16T04:21:20.829Z,99.99
2017-01-16T04:22:21.587Z,99.99
2017-01-16T04:23:21.053Z,99.99
2017-01-16T04:24:20.900Z,99.99
2017-01-16T04:25:21.050Z,99.99
2017-01-16T04:26:21.148Z,99.99
2017-01-16T04:27:21.971Z,99.99
2017-01-16T04:28:21.036Z,99.99
2017-01-16T04:29:21.408Z,99.99
2017-01-16T04:30:21.346Z,99.99
2017-01-16T04:31:21.229Z,99.99
2017-01-16T04:32:21.944Z,99.99
2017-01-16T04:33:21.458Z,99.99
2017-01-16T04:34:21.404Z,99.99
2017-01-16T04:35:21.607Z,99.99
2017-01-16T04:36:21.608Z,99.99
2017-01-16T04:37:21.216Z,99.99
2017-01-16T04:38:21.625Z,99.99
2017-01-16T04:39:21.307Z,99.99
2017-01-16T04:40:21.051Z,99.99
2017-01-16T04:41:21.329Z,99.99
2017-01-16T04:42:21.602Z,99.99
2017-01-16T04:43:21.386Z,99.99
2017-01-16T04:44:22.417Z,99.99
2017-01-16T04:45:22.193Z,99.99
2017-01-16T04:46:21.737Z,99.99
2017-01-16T04:47:22.499Z,99.99
2017-01-16T04:48:21.804Z,99.99
2017-01-16T04:49:21.633Z,99.99
2017-01-16T04:50:21.673Z,99.99
2017-01-16T04:51:22.066Z,99.99
2017-01-16T04:52:22.119Z,99.99
2017-01-16T04:53:22.202Z,99.99
2017-01-16T04:54:21.441Z,99.99
2017-01-16T04:55:21.501Z,99.99
2017-01-16T04:56:21.984Z,99.99
2017-01-16T04:57:21.619Z,99.99
2017-01-16T04:58:21.703Z,99.99
2017-01-16T04:59:21.616Z,99.99
2017-01-16T05:00:21.674Z,99.99
2017-01-16T05:01:21.875Z,99.99
2017-01-16T05:02:22.412Z,99.99
2017-01-16T05:03:22.242Z,99.99
2017-01-16T05:04:22.046Z,99.99
2017-01-16T05:05:22.102Z,99.99
2017-01-16T05:06:21.563Z,99.99
2017-01-16T05:07:23.069Z,99.99
2017-01-16T05:08:22.136Z,99.99
2017-01-16T05:09:22.068Z,99.99
2017-01-16T05:10:22.039Z,99.99
2017-01-16T05:11:22.512Z,99.99
2017-01-16T05:12:22.452Z,99.99
2017-01-16T05:13:22.209Z,99.99
2017-01-16T05:14:22.261Z,99.99
2017-01-16T05:15:21.926Z,99.99
2017-01-16T05:16:21.522Z,99.99
2017-01-16T05:17:22.178Z,99.99
2017-01-16T05:18:23.028Z,99.99
2017-01-16T05:19:22.177Z,99.99
2017-01-16T05:20:21.926Z,99.99
2017-01-16T05:21:22.162Z,99.99
2017-01-16T05:22:22.158Z,99.99
2017-01-16T05:23:22.072Z,99.99
2017-01-16T05:24:21.772Z,99.99
2017-01-16T05:25:21.911Z,99.99
2017-01-16T05:26:22.213Z,99.99
2017-01-16T05:27:22.405Z,99.99
2017-01-16T05:28:21.926Z,99.99
2017-01-16T05:29:22.115Z,99.99
2017-01-16T05:30:22.579Z,99.99
2017-01-16T05:31:22.075Z,99.99
2017-01-16T05:32:22.551Z,99.99
2017-01-16T05:33:22.391Z,99.99
2017-01-16T05:34:21.908Z,99.99
2017-01-16T05:35:22.232Z,99.99
2017-01-16T05:36:21.917Z,99.99
2017-01-16T05:37:21.803Z,99.99
2017-01-16T05:38:22.818Z,99.99
2017-01-16T05:39:22.754Z,99.99
2017-01-16T05:40:22.606Z,99.99
2017-01-16T05:41:21.976Z,99.99
2017-01-16T05:42:21.969Z,99.99
2017-01-16T05:43:22.280Z,99.99
2017-01-16T05:44:22.018Z,99.99
2017-01-16T05:45:22.726Z,99.99
2017-01-16T05:46:22.751Z,99.99
2017-01-16T05:47:22.340Z,99.99
2017-01-16T05:48:22.921Z,99.99
2017-01-16T05:49:22.506Z,99.99
2017-01-16T05:50:22.662Z,99.99
2017-01-16T05:51:22.252Z,99.99
2017-01-16T05:52:22.761Z,99.99
2017-01-16T05:53:22.028Z,99.99
2017-01-16T05:54:22.940Z,99.99
2017-01-16T05:55:22.392Z,99.99
2017-01-16T05:56:22.511Z,99.99
2017-01-16T05:57:22.884Z,99.99
2017-01-16T05:58:22.309Z,99.99
2017-01-16T05:59:22.665Z,99.99
2017-01-16T06:00:23.394Z,99.99
2017-01-16T06:01:22.646Z,99.99
2017-01-16T06:02:22.291Z,99.99
2017-01-16T06:03:22.285Z,99.99
2017-01-16T06:04:22.337Z,99.99
2017-01-16T06:05:22.290Z,99.99
2017-01-16T06:06:22.532Z,99.99
2017-01-16T06:07:22.364Z,99.99
2017-01-16T06:08:23.238Z,99.99
2017-01-16T06:09:22.479Z,99.99
2017-01-16T06:10:22.706Z,99.99
2017-01-16T06:11:22.802Z,99.99
2017-01-16T06:12:22.270Z,99.99
2017-01-16T06:13:22.773Z,99.99
2017-01-16T06:14:22.633Z,99.99
2017-01-16T06:15:22.583Z,99.99
2017-01-16T06:16:22.463Z,99.99
2017-01-16T06:17:23.364Z,99.99
2017-01-16T06:18:22.622Z,99.99
2017-01-16T06:19:22.592Z,99.99
2017-01-16T06:20:22.387Z,99.99
2017-01-16T06:21:22.269Z,99.99
2017-01-16T06:22:22.431Z,99.99
2017-01-16T06:23:22.540Z,99.99
2017-01-16T06:24:22.408Z,99.99
2017-01-16T06:25:22.623Z,99.99
2017-01-16T06:26:22.630Z,99.99
2017-01-16T06:27:22.414Z,99.99
2017-01-16T06:28:22.680Z,99.99
2017-01-16T06:29:22.513Z,99.99
2017-01-16T06:30:22.646Z,99.99
2017-01-16T06:31:22.479Z,99.99
2017-01-16T06:32:22.699Z,99.99
2017-01-16T06:33:22.793Z,99.99
2017-01-16T06:34:23.011Z,99.99
2017-01-16T06:35:22.699Z,99.99
2017-01-16T06:36:23.095Z,99.99
2017-01-16T06:37:22.646Z,99.99
2017-01-16T06:38:22.525Z,99.99
2017-01-16T06:39:22.486Z,99.99
2017-01-16T06:40:22.779Z,99.99
2017-01-16T06:41:22.870Z,99.99
2017-01-16T06:42:23.272Z,99.99
2017-01-16T06:43:22.932Z,99.99
2017-01-16T06:44:23.242Z,99.99
2017-01-16T06:45:22.921Z,99.99
2017-01-16T06:46:23.356Z,99.99
2017-01-16T06:47:23.026Z,99.99
2017-01-16T06:48:23.351Z,99.99
2017-01-16T06:49:22.802Z,99.99
2017-01-16T06:50:22.403Z,99.99
2017-01-16T06:51:23.371Z,99.99
2017-01-16T06:52:22.593Z,99.99
2017-01-16T06:53:22.872Z,99.99
2017-01-16T06:54:22.806Z,99.99
2017-01-16T06:55:22.944Z,99.99
2017-01-16T06:56:23.278Z,99.99
2017-01-16T06:57:23.747Z,99.99
2017-01-16T06:58:23.506Z,99.99
2017-01-16T06:59:23.361Z,99.99
2017-01-16T07:00:23.083Z,99.99
2017-01-16T07:01:23.091Z,99.99
2017-01-16T07:02:23.206Z,99.99
2017-01-16T07:03:22.859Z,99.99
2017-01-16T07:04:22.761Z,99.99
2017-01-16T07:05:23.350Z,99.99
2017-01-16T07:06:23.140Z,99.99
2017-01-16T07:07:23.666Z,99.99
2017-01-16T07:08:23.780Z,99.99
2017-01-16T07:09:23.475Z,99.99
2017-01-16T07:10:23.495Z,99.99
2017-01-16T07:11:23.382Z,99.99
2017-01-16T07:12:22.807Z,99.99
2017-01-16T07:13:23.145Z,99.99
2017-01-16T07:14:22.966Z,99.99
2017-01-16T07:15:23.490Z,99.99
2017-01-16T07:16:23.311Z,99.99
2017-01-16T07:17:23.071Z,99.99
2017-01-16T07:18:22.966Z,99.99
2017-01-16T07:19:23.308Z,99.99
2017-01-16T07:20:22.926Z,99.99
2017-01-16T07:21:23.184Z,99.99
2017-01-16T07:22:23.075Z,99.99
2017-01-16T07:23:23.095Z,99.99
2017-01-16T07:24:23.265Z,99.99
2017-01-16T07:25:23.197Z,99.99
2017-01-16T07:26:23.661Z,99.99
2017-01-16T07:27:22.944Z,99.99
2017-01-16T07:28:23.893Z,99.99
2017-01-16T07:29:23.348Z,99.99
2017-01-16T07:30:23.691Z,99.99
2017-01-16T07:31:23.534Z,99.99
2017-01-16T07:32:23.699Z,99.99
2017-01-16T07:33:23.279Z,99.99
2017-01-16T07:34:22.949Z,99.99
2017-01-16T07:35:22.967Z,99.99
2017-01-16T07:36:23.385Z,99.99
2017-01-16T07:37:23.116Z,99.99
2017-01-16T07:38:23.232Z,99.99
2017-01-16T07:39:22.995Z,99.99
2017-01-16T07:40:23.398Z,99.99
2017-01-16T07:41:23.679Z,99.99
2017-01-16T07:42:23.672Z,99.99
2017-01-16T07:43:23.884Z,99.99
2017-01-16T07:44:23.038Z,99.99
2017-01-16T07:45:23.217Z,99.99
2017-01-16T07:46:23.345Z,99.99
2017-01-16T07:47:23.710Z,99.99
2017-01-16T07:48:23.804Z,99.99
2017-01-16T07:49:23.576Z,99.99
2017-01-16T07:50:23.617Z,99.99
2017-01-16T07:51:23.911Z,99.99
2017-01-16T07:52:23.867Z,99.99
2017-01-16T07:53:23.246Z,99.99
2017-01-16T07:54:24.106Z,99.99
2017-01-16T07:55:23.686Z,99.99
2017-01-16T07:56:23.453Z,99.99
2017-01-16T07:57:23.742Z,99.99
2017-01-16T07:58:23.713Z,99.99
2017-01-16T07:59:23.924Z,99.99
2017-01-16T08:00:23.390Z,99.99
2017-01-16T08:01:24.003Z,99.99
2017-01-16T08:02:24.161Z,99.99
2017-01-16T08:03:23.471Z,99.99
2017-01-16T08:04:23.993Z,99.99
2017-01-16T08:05:24.355Z,99.99
2017-01-16T08:06:23.716Z,99.99
2017-01-16T08:07:24.191Z,99.99
2017-01-16T08:08:23.463Z,99.99
2017-01-16T08:09:24.008Z,99.99
2017-01-16T08:10:23.881Z,99.99
2017-01-16T08:11:24.011Z,99.99
2017-01-16T08:12:24.451Z,99.99
2017-01-16T08:13:23.742Z,99.99
2017-01-16T08:14:23.935Z,99.99
2017-01-16T08:15:23.695Z,99.99
2017-01-16T08:16:24.032Z,99.99
2017-01-16T08:17:23.812Z,99.99
2017-01-16T08:18:23.784Z,99.99
2017-01-16T08:19:24.476Z,99.99
2017-01-16T08:20:23.624Z,99.99
2017-01-16T08:21:24.106Z,99.99
2017-01-16T08:22:24.200Z,99.99
2017-01-16T08:23:24.202Z,99.99
2017-01-16T08:24:23.846Z,99.99
2017-01-16T08:25:23.736Z,99.99
2017-01-16T08:26:24.498Z,99.99
2017-01-16T08:27:23.795Z,99.99
2017-01-16T08:28:24.132Z,99.99
2017-01-16T08:29:24.789Z,99.99
2017-01-16T08:30:24.076Z,99.99
2017-01-16T08:31:24.280Z,99.99
2017-01-16T08:32:24.117Z,99.99
2017-01-16T08:33:23.783Z,99.99
2017-01-16T08:34:24.088Z,99.99
2017-01-16T08:35:24.332Z,99.99
2017-01-16T08:36:24.048Z,99.99
2017-01-16T08:37:24.307Z,99.99
2017-01-16T08:38:24.568Z,99.99
2017-01-16T08:39:24.215Z,99.99
2017-01-16T08:40:24.379Z,99.99
2017-01-16T08:41:24.108Z,99.99
2017-01-16T08:42:23.955Z,99.99
2017-01-16T08:43:24.019Z,99.99
2017-01-16T08:44:24.144Z,99.99
2017-01-16T08:45:24.300Z,99.99
2017-01-16T08:46:23.978Z,99.99
2017-01-16T08:47:25.005Z,99.99
2017-01-16T08:48:25.024Z,99.99
2017-01-16T08:49:24.127Z,99.99
2017-01-16T08:50:24.311Z,99.99
2017-01-16T08:51:24.080Z,99.99
2017-01-16T08:52:24.309Z,99.99
2017-01-16T08:53:25.259Z,99.99
2017-01-16T08:54:24.178Z,99.99
2017-01-16T08:55:24.887Z,99.99
2017-01-16T08:56:24.686Z,99.99
2017-01-16T08:57:24.200Z,99.99
2017-01-16T08:58:24.954Z,99.99
2017-01-16T08:59:24.174Z,99.99
2017-01-16T09:00:24.915Z,99.99
2017-01-16T09:01:24.864Z,99.99
2017-01-16T09:02:24.007Z,99.99
2017-01-16T09:03:24.784Z,99.99
2017-01-16T09:04:24.593Z,99.99
2017-01-16T09:05:23.951Z,99.99
2017-01-16T09:06:23.957Z,99.99
2017-01-16T09:07:24.680Z,99.99
2017-01-16T09:08:25.486Z,99.99
2017-01-16T09:09:24.171Z,99.99
2017-01-16T09:10:24.706Z,99.99
2017-01-16T09:11:24.004Z,99.99
2017-01-16T09:12:24.566Z,99.99
2017-01-16T09:13:25.012Z,99.99
2017-01-16T09:14:24.729Z,99.99
2017-01-16T09:15:24.876Z,99.99
2017-01-16T09:16:24.219Z,99.99
2017-01-16T09:17:24.325Z,99.99
2017-01-16T09:18:24.566Z,99.99
2017-01-16T09:19:24.322Z,99.99
2017-01-16T09:20:25.013Z,99.99
2017-01-16T09:21:24.174Z,99.99
2017-01-16T09:22:24.584Z,99.99
2017-01-16T09:23:24.560Z,99.99
2017-01-16T09:24:24.543Z,99.99
2017-01-16T09:25:24.269Z,99.99
2017-01-16T09:26:24.129Z,99.99
2017-01-16T09:27:24.618Z,99.99
2017-01-16T09:28:24.572Z,99.99
2017-01-16T09:29:24.939Z,99.99
2017-01-16T09:30:24.681Z,99.99
2017-01-16T09:31:24.906Z,99.99
2017-01-16T09:32:24.281Z,99.99
2017-01-16T09:33:25.183Z,99.99
2017-01-16T09:34:24.702Z,99.99
2017-01-16T09:35:25.130Z,99.99
2017-01-16T09:36:24.774Z,99.99
2017-01-16T09:37:24.509Z,99.99
2017-01-16T09:38:24.581Z,99.99
2017-01-16T09:39:25.018Z,99.99
2017-01-16T09:40:25.180Z,99.99
2017-01-16T09:41:24.614Z,99.99
2017-01-16T09:42:24.811Z,99.99
2017-01-16T09:43:24.627Z,99.99
2017-01-16T09:44:24.706Z,99.99
2017-01-16T09:45:24.882Z,99.99
2017-01-16T09:46:25.380Z,99.99
2017-01-16T09:47:25.017Z,99.99
2017-01-16T09:48:24.515Z,99.99
2017-01-16T09:49:24.652Z,99.99
2017-01-16T09:50:24.745Z,99.99
2017-01-16T09:51:24.707Z,99.99
2017-01-16T09:52:24.728Z,99.99
2017-01-16T09:53:25.234Z,99.99
2017-01-16T09:54:24.843Z,99.99
2017-01-16T09:55:24.757Z,99.99
2017-01-16T09:56:25.523Z,99.99
2017-01-16T09:57:25.215Z,99.99
2017-01-16T09:58:24.414Z,99.99
2017-01-16T09:59:25.051Z,99.99
2017-01-16T10:00:25.761Z,99.99
2017-01-16T10:01:24.809Z,99.99
2017-01-16T10:02:24.819Z,99.99
2017-01-16T10:03:25.082Z,99.99
2017-01-16T10:04:24.960Z,99.99
2017-01-16T10:05:24.452Z,99.99
2017-01-16T10:06:24.922Z,99.99
2017-01-16T10:07:25.288Z,99.99
2017-01-16T10:08:25.108Z,99.99
2017-01-16T10:09:25.236Z,99.99
2017-01-16T10:10:24.904Z,99.99
2017-01-16T10:11:25.032Z,99.99
2017-01-16T10:12:25.276Z,99.99
2017-01-16T10:13:25.176Z,99.99
2017-01-16T10:14:25.541Z,99.33
2017-01-16T10:15:24.787Z,97.82
2017-01-16T10:16:24.874Z,98.58
2017-01-16T10:17:25.673Z,98.96
2017-01-16T10:18:25.633Z,98.67
2017-01-16T10:19:25.307Z,98.67
2017-01-16T10:20:25.452Z,99.33
2017-01-16T10:21:25.211Z,98.58
2017-01-16T10:22:26.028Z,98.05
2017-01-16T10:23:24.886Z,99.24
2017-01-16T10:24:25.436Z,98.77
2017-01-16T10:25:25.259Z,98.01
2017-01-16T10:26:25.081Z,96.97
2017-01-16T10:27:25.101Z,94.98
2017-01-16T10:28:25.339Z,94.23
2017-01-16T10:29:25.297Z,92.05
2017-01-16T10:30:25.585Z,91.29
2017-01-16T10:31:24.967Z,91.24
2017-01-16T10:32:24.878Z,88.49
2017-01-16T10:33:25.164Z,88.68
2017-01-16T10:34:25.806Z,88.12
2017-01-16T10:35:25.107Z,86.55
2017-01-16T10:36:25.131Z,87.12
2017-01-16T10:37:25.612Z,86.46
2017-01-16T10:38:25.440Z,85.51
2017-01-16T10:39:25.493Z,84.19
2017-01-16T10:40:25.273Z,82.81
2017-01-16T10:41:25.140Z,82.81
2017-01-16T10:42:25.357Z,81.76
2017-01-16T10:43:26.131Z,82.33
2017-01-16T10:44:25.220Z,82.1
2017-01-16T10:45:25.523Z,82.67
2017-01-16T10:46:25.112Z,82.67
2017-01-16T10:47:25.637Z,82.2
2017-01-16T10:48:25.385Z,82.76
2017-01-16T10:49:25.472Z,82.05
2017-01-16T10:50:25.119Z,82.57
2017-01-16T10:51:25.514Z,83.71
2017-01-16T10:52:26.226Z,85.28
2017-01-16T10:53:25.425Z,86.51
2017-01-16T10:54:25.317Z,86.98
2017-01-16T10:55:25.724Z,86.89
2017-01-16T10:56:25.399Z,87.08
2017-01-16T10:57:25.326Z,87.08
2017-01-16T10:58:25.676Z,86.6
2017-01-16T10:59:25.806Z,86.7
2017-01-16T11:00:25.537Z,86.98
2017-01-16T11:01:25.669Z,88.31
2017-01-16T11:02:26.076Z,88.12
2017-01-16T11:03:26.163Z,88.49
2017-01-16T11:04:25.851Z,86.51
2017-01-16T11:05:25.641Z,85.47
2017-01-16T11:06:26.227Z,85.85
2017-01-16T11:07:26.121Z,85.57
2017-01-16T11:08:26.099Z,85.38
2017-01-16T11:09:26.378Z,85.47
2017-01-16T11:10:25.615Z,86.04
2017-01-16T11:11:25.513Z,86.51
2017-01-16T11:12:26.131Z,86.89
2017-01-16T11:13:26.526Z,85.75
2017-01-16T11:14:26.344Z,85.94
2017-01-16T11:15:25.567Z,85.85
2017-01-16T11:16:25.883Z,84.52
2017-01-16T11:17:26.279Z,83.95
2017-01-16T11:18:25.759Z,84.9
2017-01-16T11:19:26.564Z,84.71
2017-01-16T11:20:25.708Z,85.66
2017-01-16T11:21:26.638Z,85.94
2017-01-16T11:22:25.629Z,85.19
2017-01-16T11:23:25.699Z,85.85
2017-01-16T11:24:26.580Z,85.51
2017-01-16T11:25:26.163Z,85.13
2017-01-16T11:26:25.779Z,83.43
2017-01-16T11:27:26.069Z,83.14
2017-01-16T11:28:26.095Z,82.29
2017-01-16T11:29:26.065Z,82.67
2017-01-16T11:30:26.082Z,82.57
2017-01-16T11:31:25.955Z,83.24
2017-01-16T11:32:26.155Z,82.95
2017-01-16T11:33:26.251Z,83.14
2017-01-16T11:34:26.066Z,84
2017-01-16T11:35:26.353Z,84.33
2017-01-16T11:36:26.181Z,84.61
2017-01-16T11:37:26.834Z,85.28
2017-01-16T11:38:25.921Z,84.14
2017-01-16T11:39:25.909Z,83.76
2017-01-16T11:40:25.804Z,82.57
2017-01-16T11:41:26.978Z,81.25
2017-01-16T11:42:25.991Z,80.87
2017-01-16T11:43:26.365Z,79.93
2017-01-16T11:44:25.834Z,80.3
2017-01-16T11:45:26.243Z,79.96
2017-01-16T11:46:26.215Z,79.96
2017-01-16T11:47:26.235Z,79.87
2017-01-16T11:48:26.398Z,79.49
2017-01-16T11:49:26.505Z,79.11
2017-01-16T11:50:26.245Z,78.35
2017-01-16T11:51:26.190Z,77.06
2017-01-16T11:52:26.464Z,76.97
2017-01-16T11:53:26.398Z,76.59
2017-01-16T11:54:27.041Z,78.16
2017-01-16T11:55:26.617Z,77.54
2017-01-16T11:56:27.711Z,76.87
2017-01-16T11:57:26.682Z,76.5
2017-01-16T11:58:26.560Z,76.12
2017-01-16T11:59:26.510Z,75.93
2017-01-16T12:00:27.129Z,75.93
2017-01-16T12:01:26.285Z,76.03
2017-01-16T12:02:26.268Z,76.4
2017-01-16T12:03:26.692Z,76.5
2017-01-16T12:04:26.301Z,76.97
2017-01-16T12:05:26.532Z,77.45
2017-01-16T12:06:26.151Z,78.35
2017-01-16T12:07:26.825Z,79.58
2017-01-16T12:08:26.253Z,80.34
2017-01-16T12:09:26.397Z,80.06
2017-01-16T12:10:26.557Z,79.3
2017-01-16T12:11:26.790Z,78.35
2017-01-16T12:12:27.398Z,78.73
2017-01-16T12:13:27.097Z,79.87
2017-01-16T12:14:26.671Z,80.34
2017-01-16T12:15:26.876Z,81.06
2017-01-16T12:16:27.306Z,81.44
2017-01-16T12:17:26.932Z,83.01
2017-01-16T12:18:26.503Z,83.05
2017-01-16T12:19:26.606Z,82.76
2017-01-16T12:20:26.812Z,81.82
2017-01-16T12:21:26.408Z,81.25
2017-01-16T12:22:27.349Z,79.77
2017-01-16T12:23:27.176Z,78.16
2017-01-16T12:24:26.816Z,78.35
2017-01-16T12:25:27.190Z,77.88
2017-01-16T12:26:26.945Z,78.22
2017-01-16T12:27:26.772Z,78.16
2017-01-16T12:28:26.824Z,77.97
2017-01-16T12:29:27.077Z,77.03
2017-01-16T12:30:27.236Z,77.03
2017-01-16T12:31:26.918Z,77.31
2017-01-16T12:32:26.867Z,77.4
2017-01-16T12:33:27.962Z,77.65
2017-01-16T12:34:27.464Z,77.75
2017-01-16T12:35:27.498Z,78.03
2017-01-16T12:36:26.876Z,78.59
2017-01-16T12:37:26.657Z,78.41
2017-01-16T12:38:27.622Z,79.26
2017-01-16T12:39:27.166Z,78.98
2017-01-16T12:40:27.713Z,77.4
2017-01-16T12:41:26.836Z,76.17
2017-01-16T12:42:27.641Z,75.64
2017-01-16T12:43:27.273Z,75.45
2017-01-16T12:44:27.275Z,75.55
2017-01-16T12:45:27.445Z,75.55
2017-01-16T12:46:27.356Z,74.98
2017-01-16T12:47:27.634Z,75.17
2017-01-16T12:48:26.909Z,75.32
2017-01-16T12:49:27.570Z,76.46
2017-01-16T12:50:26.916Z,77.5
2017-01-16T12:51:27.250Z,78.13
2017-01-16T12:52:28.176Z,79.07
2017-01-16T12:53:27.324Z,79.36